createdAt,value
2023-05-07T00:00:30.856Z,49.54
2023-05-07T00:02:59.251Z,49.54
2023-05-07T00:05:29.292Z,49.72
2023-05-07T00:07:59.525Z,49.56
2023-05-07T00:10:28.593Z,49.80
2023-05-07T00:12:56.998Z,49.79
2023-05-07T00:15:25.407Z,49.86
2023-05-07T00:17:53.894Z,50.03
2023-05-07T00:20:22.335Z,50.18
2023-05-07T00:22:52.083Z,50.19
2023-05-07T00:25:21.497Z,50.03
2023-05-07T00:27:49.938Z,50.08
2023-05-07T00:30:18.573Z,50.24
2023-05-07T00:32:47.094Z,50.33
2023-05-07T00:35:15.479Z,50.23
2023-05-07T00:37:43.893Z,50.32
2023-05-07T00:40:14.208Z,50.27
2023-05-07T00:42:42.708Z,50.31
2023-05-07T00:45:11.945Z,50.56
2023-05-07T00:47:40.976Z,50.57
2023-05-07T00:50:13.797Z,50.42
2023-05-07T00:52:43.365Z,50.54
2023-05-07T00:55:15.603Z,50.46
2023-05-07T00:57:44.581Z,50.23
2023-05-07T01:00:14.932Z,50.25
2023-05-07T01:02:44.443Z,50.16
2023-05-07T01:05:17.114Z,50.34
2023-05-07T01:07:46.613Z,50.03
2023-05-07T01:10:17.689Z,50.08
2023-05-07T01:12:48.144Z,49.95
2023-05-07T01:15:17.383Z,49.87
2023-05-07T01:17:46.083Z,49.87
2023-05-07T01:20:15.323Z,49.81
2023-05-07T01:22:45.880Z,49.66
2023-05-07T01:25:14.671Z,49.72
2023-05-07T01:27:43.257Z,49.69
2023-05-07T01:30:12.893Z,49.82
2023-05-07T01:32:46.916Z,49.70
2023-05-07T01:35:21.282Z,49.59
2023-05-07T01:37:51.553Z,49.31
2023-05-07T01:40:20.614Z,49.42
2023-05-07T01:42:49.587Z,49.55
2023-05-07T01:45:17.935Z,49.43
2023-05-07T01:47:46.948Z,49.49
2023-05-07T01:50:17.983Z,49.37
2023-05-07T01:52:46.448Z,49.30
2023-05-07T01:55:16.230Z,49.50
2023-05-07T01:57:44.982Z,49.37
2023-05-07T02:00:14.593Z,49.52
2023-05-07T02:02:43.293Z,49.54
2023-05-07T02:05:11.878Z,49.47
2023-05-07T02:07:40.268Z,49.65
2023-05-07T02:10:10.276Z,49.82
2023-05-07T02:12:40.161Z,49.83
2023-05-07T02:15:10.071Z,49.74
2023-05-07T02:17:41.339Z,49.76
2023-05-07T02:20:14.439Z,49.99
2023-05-07T02:22:42.913Z,49.92
2023-05-07T02:25:11.473Z,49.96
2023-05-07T02:27:41.310Z,50.05
2023-05-07T02:30:11.331Z,49.89
2023-05-07T02:32:39.936Z,50.00
2023-05-07T02:35:09.352Z,49.90
2023-05-07T02:37:37.760Z,49.96
2023-05-07T02:40:08.158Z,50.02
2023-05-07T02:42:36.591Z,49.96
2023-05-07T02:45:07.979Z,49.96
2023-05-07T02:47:36.392Z,49.75
2023-05-07T02:50:05.900Z,49.95
2023-05-07T02:52:34.290Z,49.89
2023-05-07T02:55:03.622Z,49.94
2023-05-07T02:57:32.276Z,49.86
2023-05-07T03:00:01.137Z,49.86
2023-05-07T03:02:30.927Z,49.87
2023-05-07T03:04:59.308Z,49.93
2023-05-07T03:07:27.611Z,50.02
2023-05-07T03:09:55.956Z,49.93
2023-05-07T03:12:24.371Z,49.99
2023-05-07T03:14:52.749Z,50.15
2023-05-07T03:17:21.206Z,50.20
2023-05-07T03:19:51.273Z,50.16
2023-05-07T03:22:19.689Z,50.44
2023-05-07T03:24:48.013Z,50.45
2023-05-07T03:27:16.401Z,50.63
2023-05-07T03:29:44.700Z,50.51
2023-05-07T03:32:13.169Z,50.65
2023-05-07T03:34:41.699Z,50.52
2023-05-07T03:37:11.556Z,50.65
2023-05-07T03:39:39.882Z,50.60
2023-05-07T03:42:08.360Z,50.89
2023-05-07T03:44:37.256Z,50.97
2023-05-07T03:47:06.302Z,51.06
2023-05-07T03:49:34.654Z,50.99
2023-05-07T03:52:03.063Z,51.05
2023-05-07T03:54:33.332Z,51.16
2023-05-07T03:57:01.744Z,51.23
2023-05-07T03:59:30.063Z,51.22
2023-05-07T04:01:58.429Z,51.45
2023-05-07T04:04:27.050Z,51.33
2023-05-07T04:06:55.473Z,51.41
2023-05-07T04:09:23.911Z,51.37
2023-05-07T04:11:53.752Z,51.35
2023-05-07T04:14:22.182Z,51.39
2023-05-07T04:16:50.617Z,51.30
2023-05-07T04:19:19.086Z,51.13
2023-05-07T04:21:47.453Z,51.20
2023-05-07T04:24:16.036Z,51.17
2023-05-07T04:26:44.523Z,51.22
2023-05-07T04:29:14.269Z,51.11
2023-05-07T04:31:45.289Z,50.98
2023-05-07T04:34:13.934Z,51.01
2023-05-07T04:36:42.267Z,50.78
2023-05-07T04:39:11.756Z,50.83
2023-05-07T04:41:40.119Z,50.69
2023-05-07T04:44:08.521Z,50.65
2023-05-07T04:46:38.302Z,50.63
2023-05-07T04:49:07.803Z,50.31
2023-05-07T04:51:36.166Z,50.37
2023-05-07T04:54:04.619Z,50.11
2023-05-07T04:56:32.945Z,49.92
2023-05-07T04:59:01.415Z,49.74
2023-05-07T05:01:29.890Z,49.65
2023-05-07T05:04:01.245Z,49.47
2023-05-07T05:06:29.842Z,49.42
2023-05-07T05:08:58.134Z,49.42
2023-05-07T05:11:26.802Z,49.30
2023-05-07T05:13:55.192Z,49.47
2023-05-07T05:16:23.646Z,48.90
2023-05-07T05:18:53.082Z,49.11
2023-05-07T05:21:23.293Z,48.78
2023-05-07T05:23:51.652Z,49.00
2023-05-07T05:26:20.050Z,48.85
2023-05-07T05:28:48.471Z,48.61
2023-05-07T05:31:16.881Z,48.58
2023-05-07T05:33:45.870Z,48.57
2023-05-07T05:36:14.432Z,48.32
2023-05-07T05:38:44.963Z,48.28
2023-05-07T05:41:13.339Z,48.37
2023-05-07T05:43:41.701Z,48.31
2023-05-07T05:46:12.890Z,48.24
2023-05-07T05:48:41.640Z,48.12
2023-05-07T05:51:10.040Z,47.86
2023-05-07T05:53:38.440Z,47.29
2023-05-07T05:56:09.209Z,46.96
2023-05-07T05:58:37.669Z,46.46
2023-05-07T06:01:06.400Z,45.91
2023-05-07T06:03:34.837Z,45.70
2023-05-07T06:06:03.295Z,45.35
2023-05-07T06:08:32.714Z,45.06
2023-05-07T06:11:01.806Z,45.01
2023-05-07T06:13:31.621Z,44.98
2023-05-07T06:16:00.127Z,44.76
2023-05-07T06:18:28.524Z,44.53
2023-05-07T06:20:56.812Z,44.50
2023-05-07T06:23:25.164Z,43.94
2023-05-07T06:25:53.917Z,43.91
2023-05-07T06:28:22.232Z,43.67
2023-05-07T06:30:52.057Z,43.16
2023-05-07T06:33:21.051Z,42.65
2023-05-07T06:35:49.533Z,42.48
2023-05-07T06:38:18.489Z,42.47
2023-05-07T06:40:50.033Z,42.39
2023-05-07T06:43:18.458Z,42.10
2023-05-07T06:45:46.856Z,42.24
2023-05-07T06:48:16.612Z,41.66
2023-05-07T06:50:45.024Z,41.62
2023-05-07T06:53:13.562Z,41.41
2023-05-07T06:55:42.681Z,41.25
2023-05-07T06:58:11.114Z,41.24
2023-05-07T07:00:39.613Z,41.18
2023-05-07T07:03:08.005Z,40.79
2023-05-07T07:05:38.214Z,40.60
2023-05-07T07:08:07.272Z,40.38
2023-05-07T07:10:35.784Z,40.38
2023-05-07T07:13:04.189Z,40.14
2023-05-07T07:15:32.728Z,39.92
2023-05-07T07:18:01.258Z,39.62
2023-05-07T07:20:29.863Z,39.44
2023-05-07T07:23:00.679Z,39.03
2023-05-07T07:25:29.128Z,38.64
2023-05-07T07:27:57.452Z,38.60
2023-05-07T07:30:25.979Z,38.25
2023-05-07T07:32:54.799Z,38.03
2023-05-07T07:35:23.227Z,37.63
2023-05-07T07:37:52.070Z,37.27
2023-05-07T07:40:22.555Z,37.22
2023-05-07T07:42:50.919Z,37.07
2023-05-07T07:45:19.374Z,37.12
2023-05-07T07:47:47.821Z,36.90
2023-05-07T07:50:25.210Z,36.75
2023-05-07T07:53:04.563Z,36.53
2023-05-07T07:55:34.249Z,36.92
2023-05-07T07:58:02.648Z,37.19
2023-05-07T08:00:31.065Z,37.31
2023-05-07T08:02:59.626Z,37.31
2023-05-07T08:05:28.281Z,37.31
2023-05-07T08:07:56.613Z,37.18
2023-05-07T08:10:24.939Z,37.06
2023-05-07T08:12:54.785Z,36.73
2023-05-07T08:15:23.283Z,36.57
2023-05-07T08:17:51.832Z,36.49
2023-05-07T08:20:20.678Z,36.26
2023-05-07T08:22:49.047Z,36.00
2023-05-07T08:25:17.450Z,35.62
2023-05-07T08:27:46.058Z,35.46
2023-05-07T08:30:17.214Z,35.56
2023-05-07T08:32:45.744Z,35.23
2023-05-07T08:35:14.226Z,35.04
2023-05-07T08:37:42.676Z,34.66
2023-05-07T08:40:14.387Z,34.22
2023-05-07T08:42:44.164Z,34.34
2023-05-07T08:45:13.337Z,34.02
2023-05-07T08:47:48.849Z,33.83
2023-05-07T08:50:17.641Z,33.46
2023-05-07T08:52:46.098Z,33.35
2023-05-07T08:55:16.241Z,33.40
2023-05-07T08:57:44.801Z,33.44
2023-05-07T09:00:15.141Z,33.15
2023-05-07T09:02:45.000Z,33.52
2023-05-07T09:05:13.817Z,33.13
2023-05-07T09:07:42.475Z,32.30
2023-05-07T09:10:11.811Z,32.54
2023-05-07T09:12:41.036Z,32.23
2023-05-07T09:15:11.412Z,31.94
2023-05-07T09:17:40.064Z,31.95
2023-05-07T09:20:11.428Z,31.99
2023-05-07T09:22:40.696Z,31.96
2023-05-07T09:25:11.376Z,31.52
2023-05-07T09:27:40.188Z,31.24
2023-05-07T09:30:10.116Z,31.56
2023-05-07T09:32:40.162Z,31.17
2023-05-07T09:35:18.174Z,30.58
2023-05-07T09:37:47.416Z,30.98
2023-05-07T09:40:24.355Z,30.73
2023-05-07T09:42:53.155Z,31.25
2023-05-07T09:45:25.802Z,31.05
2023-05-07T09:47:58.702Z,30.82
2023-05-07T09:50:31.949Z,31.07
2023-05-07T09:53:01.728Z,30.99
2023-05-07T09:55:30.543Z,30.66
2023-05-07T09:58:00.959Z,30.69
2023-05-07T10:00:31.024Z,30.27
2023-05-07T10:03:00.554Z,30.28
2023-05-07T10:05:30.917Z,31.13
2023-05-07T10:08:00.910Z,31.31
2023-05-07T10:10:31.293Z,31.25
2023-05-07T10:13:00.384Z,31.23
2023-05-07T10:15:30.680Z,31.71
2023-05-07T10:17:59.486Z,31.64
2023-05-07T10:20:30.651Z,31.24
2023-05-07T10:23:00.736Z,31.70
2023-05-07T10:25:33.468Z,31.29
2023-05-07T10:28:06.789Z,31.24
2023-05-07T10:30:50.566Z,31.45
2023-05-07T10:33:25.772Z,31.65
2023-05-07T10:36:01.167Z,31.55
2023-05-07T10:38:30.466Z,31.58
2023-05-07T10:40:59.157Z,31.39
2023-05-07T10:43:27.565Z,30.83
2023-05-07T10:46:13.597Z,31.41
2023-05-07T10:49:13.419Z,30.90
2023-05-07T10:51:43.202Z,30.24
2023-05-07T10:54:25.797Z,30.42
2023-05-07T10:56:54.305Z,29.64
2023-05-07T10:59:43.834Z,29.31
2023-05-07T11:02:15.284Z,28.82
2023-05-07T11:04:44.047Z,28.61
2023-05-07T11:07:28.201Z,28.36
2023-05-07T11:10:08.966Z,27.47
2023-05-07T11:12:57.124Z,27.12
2023-05-07T11:15:44.419Z,26.39
2023-05-07T11:18:15.322Z,25.96
2023-05-07T11:20:59.691Z,25.97
2023-05-07T11:24:12.651Z,26.62
2023-05-07T11:26:49.986Z,25.57
2023-05-07T11:29:22.689Z,24.75
2023-05-07T11:31:53.158Z,24.72
2023-05-07T11:34:26.109Z,24.61
2023-05-07T11:36:56.110Z,23.68
2023-05-07T11:39:35.607Z,23.84
2023-05-07T11:42:03.948Z,23.79
2023-05-07T11:44:47.324Z,23.75
2023-05-07T11:47:21.027Z,23.23
2023-05-07T11:49:53.254Z,22.96
2023-05-07T11:52:24.570Z,22.57
2023-05-07T11:54:55.832Z,21.93
2023-05-07T11:57:24.867Z,22.03
2023-05-07T11:59:55.985Z,21.66
2023-05-07T12:02:26.055Z,21.32
2023-05-07T12:04:54.832Z,20.93
2023-05-07T12:07:23.680Z,19.96
2023-05-07T12:09:54.117Z,19.66
2023-05-07T12:12:22.474Z,19.58
2023-05-07T12:14:51.554Z,19.78
2023-05-07T12:17:19.978Z,19.86
2023-05-07T12:19:49.226Z,19.92
2023-05-07T12:22:17.691Z,19.81
2023-05-07T12:24:47.801Z,19.98
2023-05-07T12:27:18.670Z,20.13
2023-05-07T12:29:48.433Z,20.33
2023-05-07T12:32:17.762Z,20.51
2023-05-07T12:34:46.294Z,19.93
2023-05-07T12:37:15.675Z,20.02
2023-05-07T12:39:49.271Z,20.06
2023-05-07T12:42:24.583Z,20.27
2023-05-07T12:44:53.663Z,20.82
2023-05-07T12:47:23.902Z,20.55
2023-05-07T12:49:52.589Z,20.58
2023-05-07T12:52:21.136Z,20.86
2023-05-07T12:54:50.679Z,21.06
2023-05-07T12:57:22.475Z,21.30
2023-05-07T12:59:50.858Z,21.62
2023-05-07T13:02:19.273Z,21.66
2023-05-07T13:04:48.851Z,22.15
2023-05-07T13:07:17.224Z,22.04
2023-05-07T13:09:45.516Z,22.08
2023-05-07T13:12:13.875Z,22.02
2023-05-07T13:14:43.689Z,21.57
2023-05-07T13:17:12.045Z,20.75
2023-05-07T13:19:40.467Z,20.64
2023-05-07T13:22:08.820Z,20.02
2023-05-07T13:24:37.157Z,19.63
2023-05-07T13:27:05.650Z,19.27
2023-05-07T13:29:33.994Z,18.89
2023-05-07T13:32:03.775Z,18.68
2023-05-07T13:34:32.248Z,18.63
2023-05-07T13:37:00.653Z,18.35
2023-05-07T13:39:29.040Z,18.12
2023-05-07T13:41:57.399Z,18.25
2023-05-07T13:44:26.060Z,18.16
2023-05-07T13:46:54.532Z,17.77
2023-05-07T13:49:25.063Z,17.80
2023-05-07T13:51:53.373Z,17.81
2023-05-07T13:54:21.871Z,17.78
2023-05-07T13:56:50.196Z,17.88
2023-05-07T13:59:18.546Z,17.49
2023-05-07T14:01:46.860Z,17.96
2023-05-07T14:04:15.172Z,17.84
2023-05-07T14:06:45.165Z,17.63
2023-05-07T14:09:14.411Z,17.52
2023-05-07T14:11:43.038Z,17.71
2023-05-07T14:14:12.679Z,17.79
2023-05-07T14:16:41.156Z,18.29
2023-05-07T14:19:09.487Z,18.47
2023-05-07T14:21:37.779Z,18.86
2023-05-07T14:24:09.502Z,19.67
2023-05-07T14:26:37.955Z,20.12
2023-05-07T14:29:06.296Z,19.79
2023-05-07T14:31:35.038Z,20.25
2023-05-07T14:34:03.463Z,20.63
2023-05-07T14:36:32.805Z,20.45
2023-05-07T14:39:01.338Z,21.09
2023-05-07T14:41:31.036Z,21.49
2023-05-07T14:44:00.051Z,22.01
2023-05-07T14:46:28.737Z,22.34
2023-05-07T14:48:57.269Z,22.42
2023-05-07T14:51:26.913Z,22.89
2023-05-07T14:53:55.626Z,22.93
2023-05-07T14:56:24.034Z,23.48
2023-05-07T14:58:53.712Z,23.68
2023-05-07T15:01:23.462Z,23.90
2023-05-07T15:03:51.845Z,23.99
2023-05-07T15:06:20.151Z,24.14
2023-05-07T15:08:49.512Z,23.90
2023-05-07T15:11:17.811Z,23.96
2023-05-07T15:13:46.186Z,23.74
2023-05-07T15:16:16.138Z,23.54
2023-05-07T15:18:45.580Z,23.15
2023-05-07T15:21:14.262Z,22.88
2023-05-07T15:23:43.314Z,23.03
2023-05-07T15:26:11.718Z,23.23
2023-05-07T15:28:40.698Z,23.00
2023-05-07T15:31:10.149Z,22.81
2023-05-07T15:33:39.837Z,23.13
2023-05-07T15:36:08.648Z,23.40
2023-05-07T15:38:36.938Z,23.38
2023-05-07T15:41:05.600Z,23.43
2023-05-07T15:43:34.028Z,23.43
2023-05-07T15:46:02.497Z,23.47
2023-05-07T15:48:31.636Z,23.58
2023-05-07T15:51:01.400Z,24.25
2023-05-07T15:53:29.737Z,24.27
2023-05-07T15:55:58.058Z,24.76
2023-05-07T15:58:26.478Z,24.42
2023-05-07T16:00:54.888Z,24.66
2023-05-07T16:03:24.407Z,25.17
2023-05-07T16:05:52.830Z,25.09
2023-05-07T16:08:22.557Z,25.06
2023-05-07T16:10:51.169Z,25.29
2023-05-07T16:13:20.434Z,25.37
2023-05-07T16:15:49.193Z,25.64
2023-05-07T16:18:17.640Z,25.61
2023-05-07T16:20:46.778Z,25.77
2023-05-07T16:23:15.103Z,26.22
2023-05-07T16:25:44.799Z,26.36
2023-05-07T16:28:13.248Z,26.42
2023-05-07T16:30:41.646Z,26.36
2023-05-07T16:33:10.446Z,26.53
2023-05-07T16:35:38.978Z,26.79
2023-05-07T16:38:10.502Z,26.81
2023-05-07T16:40:40.328Z,26.94
2023-05-07T16:43:10.104Z,27.08
2023-05-07T16:45:38.581Z,27.19
2023-05-07T16:48:08.569Z,27.33
2023-05-07T16:50:37.172Z,27.48
2023-05-07T16:53:07.992Z,27.38
2023-05-07T16:55:39.014Z,27.73
2023-05-07T16:58:09.792Z,27.61
2023-05-07T17:00:49.983Z,27.97
2023-05-07T17:03:19.692Z,28.22
2023-05-07T17:05:48.404Z,28.37
2023-05-07T17:08:16.839Z,28.48
2023-05-07T17:10:46.088Z,28.44
2023-05-07T17:13:15.912Z,28.36
2023-05-07T17:15:46.532Z,28.83
2023-05-07T17:18:15.104Z,28.67
2023-05-07T17:20:43.530Z,29.07
2023-05-07T17:23:11.881Z,28.95
2023-05-07T17:25:45.426Z,29.14
2023-05-07T17:28:15.649Z,29.27
2023-05-07T17:30:44.121Z,29.84
2023-05-07T17:33:20.795Z,29.96
2023-05-07T17:35:50.393Z,30.01
2023-05-07T17:38:19.225Z,29.90
2023-05-07T17:40:47.667Z,30.35
2023-05-07T17:43:17.392Z,30.44
2023-05-07T17:45:45.816Z,30.50
2023-05-07T17:48:14.204Z,30.65
2023-05-07T17:50:42.635Z,30.62
2023-05-07T17:53:11.454Z,30.66
2023-05-07T17:55:44.164Z,30.58
2023-05-07T17:58:13.815Z,30.94
2023-05-07T18:00:43.604Z,31.17
2023-05-07T18:03:12.253Z,31.20
2023-05-07T18:05:41.158Z,31.12
2023-05-07T18:08:09.889Z,31.36
2023-05-07T18:10:39.420Z,31.34
2023-05-07T18:13:07.976Z,31.72
2023-05-07T18:15:36.383Z,31.75
2023-05-07T18:18:07.411Z,31.98
2023-05-07T18:20:35.895Z,32.20
2023-05-07T18:23:04.850Z,32.12
2023-05-07T18:25:33.299Z,32.21
2023-05-07T18:28:01.847Z,32.43
2023-05-07T18:30:30.214Z,32.41
2023-05-07T18:32:59.249Z,32.64
2023-05-07T18:35:28.972Z,32.78
2023-05-07T18:37:57.709Z,32.87
2023-05-07T18:40:26.334Z,33.00
2023-05-07T18:42:55.966Z,33.25
2023-05-07T18:45:24.327Z,33.28
2023-05-07T18:47:52.753Z,33.48
2023-05-07T18:50:21.659Z,33.77
2023-05-07T18:52:52.402Z,33.91
2023-05-07T18:55:22.138Z,33.93
2023-05-07T18:57:50.547Z,33.94
2023-05-07T19:00:19.916Z,34.17
2023-05-07T19:02:48.656Z,34.33
2023-05-07T19:05:18.487Z,34.33
2023-05-07T19:07:47.825Z,34.31
2023-05-07T19:10:17.927Z,34.55
2023-05-07T19:12:46.741Z,34.50
2023-05-07T19:15:16.198Z,34.46
2023-05-07T19:17:45.023Z,34.63
2023-05-07T19:20:14.675Z,34.94
2023-05-07T19:22:44.011Z,35.02
2023-05-07T19:25:14.929Z,34.98
2023-05-07T19:27:45.041Z,35.47
2023-05-07T19:30:15.276Z,35.57
2023-05-07T19:32:44.307Z,35.66
2023-05-07T19:35:14.027Z,35.73
2023-05-07T19:37:44.629Z,35.88
2023-05-07T19:40:15.879Z,36.14
2023-05-07T19:42:46.778Z,35.99
2023-05-07T19:45:20.168Z,35.90
2023-05-07T19:47:49.838Z,36.08
2023-05-07T19:50:19.124Z,36.35
2023-05-07T19:52:47.883Z,36.00
2023-05-07T19:55:16.272Z,36.40
2023-05-07T19:57:50.118Z,36.65
2023-05-07T20:00:21.257Z,36.54
2023-05-07T20:02:51.358Z,36.40
2023-05-07T20:05:20.150Z,36.78
2023-05-07T20:07:49.107Z,36.91
2023-05-07T20:10:17.916Z,37.21
2023-05-07T20:12:47.778Z,37.10
2023-05-07T20:15:16.982Z,37.55
2023-05-07T20:17:45.923Z,37.32
2023-05-07T20:20:14.840Z,37.09
2023-05-07T20:22:43.421Z,37.33
2023-05-07T20:25:13.597Z,37.32
2023-05-07T20:27:42.170Z,37.66
2023-05-07T20:30:13.926Z,37.69
2023-05-07T20:32:43.480Z,37.75
2023-05-07T20:35:12.327Z,37.44
2023-05-07T20:37:40.849Z,37.72
2023-05-07T20:40:11.238Z,38.01
2023-05-07T20:42:39.921Z,38.06
2023-05-07T20:45:11.905Z,38.25
2023-05-07T20:47:40.334Z,38.13
2023-05-07T20:50:09.827Z,38.39
2023-05-07T20:52:38.292Z,38.31
2023-05-07T20:55:08.522Z,38.55
2023-05-07T20:57:37.389Z,38.45
2023-05-07T21:00:08.036Z,38.26
2023-05-07T21:02:38.118Z,38.50
2023-05-07T21:05:07.927Z,38.29
2023-05-07T21:07:36.473Z,38.58
2023-05-07T21:10:06.293Z,38.48
2023-05-07T21:12:34.696Z,38.80
2023-05-07T21:15:03.054Z,38.81
2023-05-07T21:17:33.119Z,38.99
2023-05-07T21:20:03.885Z,38.84
2023-05-07T21:22:32.323Z,38.83
2023-05-07T21:25:01.211Z,38.90
2023-05-07T21:27:30.104Z,38.96
2023-05-07T21:30:04.247Z,39.58
2023-05-07T21:32:32.910Z,39.30
2023-05-07T21:35:02.768Z,39.10
2023-05-07T21:37:31.180Z,39.13
2023-05-07T21:39:59.609Z,39.21
2023-05-07T21:42:29.032Z,39.06
2023-05-07T21:44:57.692Z,39.03
2023-05-07T21:47:26.189Z,38.90
2023-05-07T21:49:54.558Z,38.95
2023-05-07T21:52:25.999Z,38.84
2023-05-07T21:54:54.865Z,38.90
2023-05-07T21:57:23.228Z,39.06
2023-05-07T21:59:51.549Z,39.23
2023-05-07T22:02:19.971Z,39.20
2023-05-07T22:04:48.340Z,39.05
2023-05-07T22:07:16.679Z,39.25
2023-05-07T22:09:46.514Z,39.39
2023-05-07T22:12:14.870Z,39.68
2023-05-07T22:14:43.332Z,39.64
2023-05-07T22:17:11.738Z,39.66
2023-05-07T22:19:40.058Z,39.82
2023-05-07T22:22:08.409Z,39.67
2023-05-07T22:24:36.760Z,39.91
2023-05-07T22:27:06.572Z,40.00
2023-05-07T22:29:34.932Z,39.91
2023-05-07T22:32:03.644Z,39.90
2023-05-07T22:34:32.005Z,39.84
2023-05-07T22:37:00.274Z,39.90
2023-05-07T22:39:31.244Z,39.88
2023-05-07T22:41:59.539Z,39.90
2023-05-07T22:44:29.548Z,39.82
2023-05-07T22:46:58.030Z,39.82
2023-05-07T22:49:26.473Z,39.85
2023-05-07T22:51:54.769Z,39.61
2023-05-07T22:54:24.252Z,39.65
2023-05-07T22:56:54.028Z,39.54
2023-05-07T22:59:22.558Z,39.51
2023-05-07T23:01:52.441Z,39.49
2023-05-07T23:04:20.858Z,39.58
2023-05-07T23:06:49.204Z,39.60
2023-05-07T23:09:17.559Z,39.64
2023-05-07T23:11:46.027Z,39.59
2023-05-07T23:14:14.375Z,39.50
2023-05-07T23:16:42.794Z,39.61
2023-05-07T23:19:13.002Z,39.52
2023-05-07T23:21:41.565Z,39.61
2023-05-07T23:24:10.311Z,39.70
2023-05-07T23:26:38.890Z,39.68
2023-05-07T23:29:07.266Z,39.83
2023-05-07T23:31:36.322Z,39.99
2023-05-07T23:34:04.794Z,39.87
2023-05-07T23:36:34.925Z,39.90
2023-05-07T23:39:03.466Z,39.80
2023-05-07T23:41:32.035Z,39.79
2023-05-07T23:44:00.430Z,39.87
2023-05-07T23:46:28.812Z,39.71
2023-05-07T23:48:57.174Z,39.79
2023-05-07T23:51:25.574Z,39.57
2023-05-07T23:53:55.319Z,39.58
2023-05-07T23:56:23.925Z,39.58
2023-05-07T23:58:52.266Z,39.39
